Mt Rainier
Paradise
Latest observation 08/31 19:00 PDT
| Time (PDT) | Temp °F 5400' | RH % 5400' | Min mph 5380' | Spd mph 5380' | Gust mph 5380' | Dir ° 5380' | Pcp1 in 5400' | PcpSum in 5400' | 24Sno in 5400' | SnoHt in 5400' | SR W/m² 5380' |
|---|---|---|---|---|---|---|---|---|---|---|---|
| 08/31 19:00 | 60 | 69 | 0 | 2 | 6 | 259 | 0.00 | 0.34 | 15.3 | 5.6 | 2705 |
| 08/31 18:00 | 68 | 53 | 0 | 2 | 6 | 277 | 0.00 | 0.34 | 16.7 | 5.7 | 1856 |
| 08/31 17:00 | 69 | 37 | 0 | 2 | 8 | 253 | 0.00 | 0.34 | 17.6 | 5.7 | 1988 |
| 08/31 16:00 | 70 | 28 | 0 | 4 | 12 | 200 | 0.00 | 0.34 | 17.1 | 5.9 | 1589 |
| 08/31 15:00 | 69 | 30 | 0 | 3 | 14 | 123 | 0.00 | 0.34 | 16.6 | 5.3 | 1814 |
| 08/31 14:00 | 67 | 32 | 0 | 2 | 8 | 158 | 0.00 | 0.34 | 19.4 | 5.4 | 1784 |
| 08/31 13:00 | 66 | 34 | 0 | 1 | 8 | 101 | 0.00 | 0.34 | 18.3 | 5.9 | 1859 |
| 08/31 12:00 | 63 | 47 | 0 | 1 | 9 | 106 | 0.00 | 0.34 | 17.6 | 5.6 | 1796 |
| 08/31 11:00 | 62 | 50 | 0 | 0 | 1 | 102 | 0.00 | 0.34 | 17.5 | 5.9 | 1553 |
| 08/31 10:00 | 59 | 53 | 0 | 0 | 6 | 99 | 0.00 | 0.34 | 16.6 | 5.1 | 2059 |
| 08/31 09:00 | 57 | 57 | 0 | 1 | 8 | 97 | 0.00 | 0.34 | 15.9 | 5.4 | 2846 |
| 08/31 08:00 | 54 | 58 | 0 | 0 | 1 | 51 | 0.00 | 0.34 | 15.2 | 5.1 | 2679 |
| 08/31 07:00 | 50 | 63 | 0 | 0 | 2 | 35 | 0.00 | 0.34 | 14.7 | 5.1 | 2380 |
| 08/31 06:00 | 51 | 61 | 0 | 0 | 4 | 10 | 0.00 | 0.34 | 14.1 | 5.1 | 845 |
| 08/31 05:00 | 52 | 61 | 0 | 0 | 2 | 28 | 0.00 | 0.34 | 14.8 | 5.1 | 592 |
| 08/31 04:00 | 51 | 64 | 0 | 0 | 1 | 71 | 0.00 | 0.34 | 14.9 | 5.1 | 628 |
| 08/31 03:00 | 50 | 67 | 0 | 0 | 2 | 28 | 0.00 | 0.34 | 15.3 | 4.9 | 654 |
| 08/31 02:00 | 50 | 71 | 0 | 0 | 1 | 137 | 0.00 | 0.34 | 14.5 | 5.3 | 681 |
| 08/31 01:00 | 51 | 69 | 0 | 1 | 4 | 25 | 0.00 | 0.34 | 13.4 | 5.5 | 714 |
| 08/31 00:00 | 50 | 78 | 0 | 1 | 2 | 35 | 0.00 | 0.34 | 14.5 | 5.2 | 691 |
| 08/30 23:00 | 47 | 84 | 0 | 0 | 1 | 36 | 0.00 | 0.34 | 12.7 | 5.1 | 633 |
| 08/30 22:00 | 46 | 91 | 0 | 0 | 1 | 23 | 0.00 | 0.34 | 13.5 | 4.8 | 700 |
| 08/30 21:00 | 46 | 98 | 0 | 0 | 3 | 41 | 0.00 | 0.34 | 13.0 | 4.9 | 1488 |
| 08/30 20:00 | 45 | 100 | 0 | 0 | 2 | 346 | 0.00 | 0.34 | 17.0 | 4.7 | 2546 |
| 08/30 19:00 | 46 | 100 | 0 | 1 | 4 | 270 | 0.00 | 0.34 | 17.9 | 5.0 | 2759 |
| 08/30 18:00 | 47 | 98 | 0 | 2 | 5 | 277 | 0.00 | 0.34 | 17.2 | 5.0 | 2828 |
| 08/30 17:00 | 47 | 98 | 0 | 2 | 5 | 261 | 0.00 | 0.34 | 13.4 | 4.5 | 2869 |
| 08/30 16:00 | 47 | 98 | 0 | 4 | 10 | 267 | 0.00 | 0.34 | 15.5 | 4.1 | 2907 |
| 08/30 15:00 | 46 | 96 | 0 | 1 | 5 | 273 | 0.00 | 0.34 | 15.5 | 3.3 | 2925 |
| 08/30 14:00 | 45 | 98 | 0 | 0 | 4 | 265 | 0.00 | 0.34 | 16.4 | 2.0 | 2937 |
| 08/30 13:00 | 42 | 99 | 0 | 0 | 4 | 252 | 0.00 | 0.34 | 18.5 | 1.6 | 2948 |
| 08/30 12:00 | 40 | 100 | 0 | 0 | 3 | 246 | 0.00 | 0.34 | 16.4 | 2.1 | 2917 |
| 08/30 11:00 | 40 | 100 | 0 | 0 | 1 | 241 | 0.00 | 0.34 | 13.9 | 2.9 | 2885 |
| 08/30 10:00 | 39 | 100 | 0 | 0 | 3 | 167 | 0.00 | 0.34 | 14.1 | 3.4 | 2874 |
| 08/30 09:00 | 38 | 100 | 0 | 0 | 5 | 107 | 0.00 | 0.34 | 15.8 | 3.7 | 2826 |
| 08/30 08:00 | 37 | 100 | 0 | 0 | 4 | 151 | 0.00 | 0.34 | 14.9 | 4.2 | 2707 |
| 08/30 07:00 | 37 | 100 | 0 | 0 | 1 | 216 | 0.00 | 0.34 | 16.2 | 3.3 | 2357 |
| 08/30 06:00 | 37 | 100 | 0 | 0 | 2 | 256 | 0.00 | 0.34 | 13.9 | 3.3 | 561 |
| 08/30 05:00 | 37 | 100 | 0 | 0 | 1 | 267 | 0.00 | 0.34 | 13.6 | 2.7 | 432 |
| 08/30 04:00 | 37 | 100 | 0 | 0 | 2 | 291 | 0.00 | 0.34 | 13.4 | 2.9 | 448 |
| 08/30 03:00 | 37 | 100 | 0 | 0 | 3 | 264 | 0.00 | 0.34 | 13.4 | 3.1 | 409 |
| 08/30 02:00 | 37 | 100 | 0 | 2 | 5 | 254 | 0.00 | 0.34 | 13.4 | 3.1 | 399 |
| 08/30 01:00 | 38 | 100 | 0 | 1 | 8 | 255 | 0.00 | 0.34 | 14.3 | 3.3 | 342 |
| 08/30 00:00 | 39 | 100 | 1 | 4 | 9 | 256 | 0.00 | 0.34 | 14.9 | 3.4 | 237 |
| 08/29 23:00 | 39 | 100 | 1 | 4 | 7 | 250 | 0.00 | 0.34 | 15.3 | 3.5 | 215 |
| 08/29 22:00 | 39 | 100 | 3 | 6 | 14 | 256 | 0.00 | 0.34 | 13.6 | 3.8 | 240 |
| 08/29 21:00 | 40 | 100 | 3 | 6 | 12 | 253 | 0.01 | 0.34 | 16.7 | 4.9 | 852 |
| 08/29 20:00 | 40 | 100 | 4 | 8 | 13 | 258 | 0.00 | 0.33 | 13.8 | 3.6 | 2512 |
| 08/29 19:00 | 40 | 100 | 0 | 5 | 15 | 260 | 0.00 | 0.33 | 14.9 | 3.1 | 2797 |
| 08/29 18:00 | 40 | 100 | 0 | 2 | 12 | 258 | 0.01 | 0.33 | 14.8 | 4.9 | 2847 |
| 08/29 17:00 | 42 | 100 | 0 | 0 | 0 | 260 | 0.00 | 0.32 | 13.3 | 4.6 | 2934 |
| 08/29 16:00 | 40 | 99 | 0 | 0 | 0 | 260 | 0.01 | 0.32 | 16.9 | 3.1 | 2954 |
| 08/29 15:00 | 42 | 99 | 0 | 0 | 1 | 251 | 0.00 | 0.31 | 15.4 | 2.5 | 2991 |
| 08/29 14:00 | 42 | 100 | 0 | 0 | 0 | 252 | 0.00 | 0.31 | 16.7 | 2.2 | 3029 |
| 08/29 13:00 | 41 | 100 | 0 | 0 | 0 | 245 | 0.00 | 0.31 | 15.3 | 3.8 | 2966 |
| 08/29 12:00 | 39 | 100 | 0 | 0 | 0 | 248 | 0.06 | 0.31 | 17.0 | 4.8 | 2927 |
| 08/29 11:00 | 39 | 100 | 0 | 0 | 0 | 248 | 0.07 | 0.25 | 16.2 | 4.6 | 2922 |
| 08/29 10:00 | 38 | 100 | 0 | 0 | 0 | 244 | 0.03 | 0.18 | 15.2 | 4.5 | 2902 |
| 08/29 09:00 | 37 | 100 | 0 | 0 | 0 | 248 | 0.03 | 0.15 | 14.7 | 4.6 | 2810 |
| 08/29 08:00 | 37 | 100 | 0 | 0 | 0 | 256 | 0.11 | 0.12 | 15.2 | 4.8 | 2627 |
| 08/29 07:00 | 38 | 100 | 0 | 0 | 0 | 247 | 0.01 | 0.01 | 16.5 | 2.7 | 2415 |
| 08/29 06:00 | 37 | 100 | 0 | 1 | 11 | 258 | 0.00 | 0.00 | 16.2 | 4.0 | 613 |
| 08/29 05:00 | 38 | 100 | 0 | 0 | 2 | 258 | 0.00 | 0.00 | 16.1 | 4.2 | 216 |
| 08/29 04:00 | 38 | 100 | 0 | 3 | 14 | 260 | 0.00 | 0.00 | 16.8 | 4.1 | 221 |
| 08/29 03:00 | 40 | 100 | 0 | 0 | 9 | 265 | 0.00 | 0.00 | 17.2 | 3.7 | 301 |
| 08/29 02:00 | 41 | 100 | 0 | 0 | 0 | 262 | 0.00 | 0.00 | 17.0 | 4.1 | 371 |
| 08/29 01:00 | 42 | 100 | 0 | 0 | 0 | 264 | 0.00 | 0.00 | 17.0 | 4.2 | 196 |
| 08/29 00:00 | 42 | 100 | 0 | 0 | 0 | 266 | 0.00 | 0.00 | 17.0 | 4.2 | 199 |
| 08/28 23:00 | 43 | 100 | 0 | 0 | 0 | 274 | 0.00 | 0.00 | 17.0 | 4.5 | 256 |
| 08/28 22:00 | 44 | 100 | 0 | 0 | 0 | 264 | 0.00 | 0.00 | 16.8 | 4.3 | 329 |
| 08/28 21:00 | 45 | 99 | 0 | 0 | 0 | 265 | 0.00 | 0.00 | 16.8 | 4.3 | 1181 |
| 08/28 20:00 | 46 | 97 | 0 | 0 | 0 | 270 | 0.00 | 0.00 | 16.8 | 4.4 | 2495 |
| 08/28 19:00 | 49 | 90 | 0 | 0 | 0 | 271 | 0.00 | 0.00 | 16.9 | 4.2 | 2793 |
| 08/28 18:00 | 55 | 67 | 0 | 0 | 0 | 257 | 0.00 | 0.00 | 17.7 | 4.7 | 2893 |
| 08/28 17:00 | 56 | 62 | 0 | 0 | 0 | 263 | 0.00 | 0.00 | 17.6 | 5.0 | 2921 |
| 08/28 16:00 | 58 | 60 | 0 | 0 | 0 | 263 | 0.00 | 0.00 | 18.9 | 4.7 | 2954 |
| 08/28 15:00 | 57 | 63 | 0 | 0 | 0 | 268 | 0.00 | 0.00 | 19.1 | 4.6 | 2951 |
| 08/28 14:00 | 56 | 68 | 0 | 0 | 0 | 264 | 0.00 | 0.00 | 19.1 | 4.8 | 2976 |
| 08/28 13:00 | 55 | 74 | 0 | 0 | 0 | 248 | 0.00 | 0.00 | 16.7 | 4.9 | 2960 |
| 08/28 12:00 | 53 | 78 | 0 | 1 | 8 | 248 | 0.00 | 0.00 | 18.6 | 4.9 | 2969 |
| 08/28 11:00 | 50 | 82 | 0 | 1 | 7 | 232 | 0.00 | 0.00 | 18.6 | 4.9 | 2921 |
| 08/28 10:00 | 46 | 92 | 0 | 1 | 4 | 249 | 0.00 | 0.00 | 15.9 | 4.4 | 2910 |
| 08/28 09:00 | 45 | 95 | 0 | 0 | 4 | 331 | 0.00 | 0.00 | 16.8 | 4.5 | 2918 |
| 08/28 08:00 | 42 | 99 | 0 | 0 | 2 | 23 | 0.00 | 0.00 | 16.5 | 4.7 | 2803 |
| 08/28 07:00 | 42 | 100 | 0 | 0 | 1 | 15 | 0.00 | 0.00 | 16.1 | 4.7 | 2516 |
| 08/28 06:00 | 41 | 100 | 0 | 0 | 1 | 358 | 0.00 | 0.00 | 17.2 | -7999.0 | 592 |
| 08/28 05:00 | 42 | 99 | 0 | 0 | 0 | 329 | 0.00 | 0.00 | 16.5 | 4.7 | 180 |
| 08/28 04:00 | 42 | 100 | 0 | 0 | 0 | 319 | 0.00 | 0.00 | 17.0 | 4.3 | 69 |
| 08/28 03:00 | 42 | 100 | 0 | 0 | 0 | 312 | 0.00 | 0.00 | 16.8 | 4.3 | 400 |
| 08/28 02:00 | 43 | 99 | 0 | 0 | 1 | 308 | 0.00 | 0.00 | 16.2 | 4.3 | 544 |
| 08/28 01:00 | 44 | 99 | 0 | 0 | 1 | 222 | 0.00 | 0.00 | 16.2 | 4.1 | 451 |
| 08/28 00:00 | 45 | 99 | 0 | 0 | 1 | 214 | 0.00 | 0.00 | 16.1 | 4.1 | 399 |
| 08/27 23:00 | 45 | 100 | 0 | 0 | 3 | 239 | 0.00 | 0.00 | 16.1 | 4.1 | 300 |
| 08/27 22:00 | 46 | 99 | 0 | 0 | 5 | 231 | 0.00 | 0.00 | 16.3 | 3.8 | 340 |
| 08/27 21:00 | 47 | 97 | 0 | 1 | 6 | 241 | 0.00 | 0.00 | 16.4 | 4.4 | 1321 |
| 08/27 20:00 | 48 | 92 | 0 | 5 | 11 | 247 | 0.00 | 0.00 | 16.4 | 4.4 | 2592 |
| 08/27 19:00 | 50 | 83 | 0 | 7 | 18 | 256 | 0.00 | 0.00 | 16.8 | 4.4 | 2844 |
| 08/27 18:00 | 54 | 71 | 0 | 0 | 6 | 261 | 0.00 | 0.00 | 18.8 | 4.6 | 2902 |
| 08/27 17:00 | 52 | 77 | 0 | 0 | 8 | 262 | 0.00 | 0.00 | 17.9 | 4.7 | 2863 |
| 08/27 16:00 | 53 | 74 | 0 | 0 | 4 | 259 | 0.00 | 0.00 | 18.6 | 4.5 | 2885 |
| 08/27 15:00 | 55 | 69 | 0 | 0 | 3 | 260 | 0.00 | 0.00 | 18.7 | 4.5 | 2935 |
| 08/27 14:00 | 55 | 65 | 0 | 0 | 8 | 259 | 0.00 | 0.00 | 18.3 | 4.7 | 2964 |
| 08/27 13:00 | 57 | 61 | 0 | 0 | 1 | 262 | 0.00 | 0.00 | 18.3 | 4.8 | 2982 |
| 08/27 12:00 | 54 | 67 | 0 | 0 | 1 | 257 | 0.00 | 0.00 | 17.2 | 4.6 | 2987 |
| 08/27 11:00 | 53 | 69 | 0 | 0 | 0 | 264 | 0.00 | 0.00 | 17.4 | 4.7 | 2973 |
| 08/27 10:00 | 49 | 87 | 0 | 0 | 0 | 264 | 0.00 | 0.00 | 16.8 | 4.0 | 2882 |
| 08/27 09:00 | 48 | 91 | 0 | 0 | 0 | 255 | 0.00 | 0.00 | 16.6 | 4.2 | 2783 |
| 08/27 08:00 | 49 | 79 | 0 | 0 | 0 | 271 | 0.00 | 0.00 | 17.5 | 4.1 | 2838 |
| 08/27 07:00 | 48 | 89 | 0 | 0 | 0 | 267 | 0.00 | 0.00 | 16.9 | 3.7 | 2377 |
| 08/27 06:00 | 50 | 93 | 0 | 0 | 0 | 268 | 0.00 | 0.00 | 17.1 | 4.2 | 777 |
| 08/27 05:00 | 51 | 78 | 0 | 0 | 0 | 263 | 0.00 | 0.00 | 16.9 | 4.0 | 471 |
| 08/27 04:00 | 51 | 84 | 0 | 0 | 0 | 260 | 0.00 | 0.00 | 16.6 | 4.1 | 504 |
| 08/27 03:00 | 54 | 67 | 0 | 0 | 0 | 278 | 0.00 | 0.00 | 18.5 | 4.3 | 494 |
| 08/27 02:00 | 54 | 72 | 0 | 0 | 0 | 278 | 0.00 | 0.00 | 18.4 | 4.1 | 586 |
| 08/27 01:00 | 54 | 76 | 0 | 0 | 0 | 273 | 0.00 | 0.00 | 16.8 | 4.1 | 528 |
| 08/27 00:00 | 54 | 74 | 0 | 0 | 0 | 275 | 0.00 | 0.00 | 17.1 | 4.8 | 554 |
| 08/26 23:00 | 56 | 70 | 0 | 0 | 1 | 267 | 0.00 | 0.00 | 18.0 | 4.7 | 597 |
| 08/26 22:00 | 55 | 74 | 0 | 2 | 11 | 261 | 0.00 | 0.00 | 18.2 | 4.4 | 625 |
| 08/26 21:00 | 54 | 79 | 0 | 1 | 6 | 267 | 0.00 | 0.00 | 16.4 | 4.7 | 1556 |
| 08/26 20:00 | 55 | 77 | 0 | 4 | 10 | 268 | 0.00 | 0.00 | 16.4 | 4.5 | 2510 |
| 08/26 19:00 | 60 | 66 | 0 | 0 | 8 | 262 | 0.00 | 0.00 | 17.4 | 5.0 | 2794 |
| 08/26 18:00 | 64 | 57 | 0 | 0 | 11 | 263 | 0.00 | 0.00 | 17.5 | 5.1 | 2840 |
| 08/26 17:00 | 67 | 47 | 0 | 0 | 6 | 256 | 0.00 | 0.00 | 17.0 | 5.4 | 1842 |
| 08/26 16:00 | 67 | 43 | 0 | 0 | 4 | 274 | 0.00 | 0.00 | 19.4 | 5.0 | 1835 |
| 08/26 15:00 | 67 | 42 | 0 | 0 | 0 | 269 | 0.00 | 0.00 | 17.2 | 5.0 | 1876 |
| 08/26 14:00 | 67 | 44 | 0 | 0 | 0 | 257 | 0.00 | 0.00 | 18.2 | 5.0 | 2045 |
| 08/26 13:00 | 65 | 46 | 0 | 0 | 0 | 263 | 0.00 | 0.00 | 17.4 | 5.4 | 2227 |
| 08/26 12:00 | 64 | 46 | 0 | 0 | 0 | 265 | 0.00 | 0.00 | 17.3 | 5.0 | 2614 |
| 08/26 11:00 | 62 | 59 | 0 | 0 | 0 | 263 | 0.00 | 0.00 | 16.5 | 5.7 | 2241 |
| 08/26 10:00 | 60 | 68 | 0 | 0 | 0 | 259 | 0.00 | 0.00 | 16.9 | 4.9 | 2325 |
| 08/26 09:00 | 60 | 56 | 0 | 0 | 1 | 286 | 0.00 | 0.00 | 16.7 | 5.4 | 1696 |
| 08/26 08:00 | 60 | 33 | 0 | 0 | 1 | 333 | 0.00 | 0.00 | 16.7 | 4.9 | 2692 |
| 08/26 07:00 | 60 | 26 | 0 | 0 | 2 | 315 | 0.00 | 0.00 | 18.3 | 5.0 | 2374 |
| 08/26 06:00 | 62 | 25 | 0 | 0 | 1 | 287 | 0.00 | 0.00 | 20.0 | 4.6 | 1287 |
| 08/26 05:00 | 60 | 29 | 0 | 0 | 3 | 301 | 0.00 | 0.00 | 20.9 | 4.9 | 995 |
| 08/26 04:00 | 60 | 38 | 0 | 0 | 3 | 295 | 0.00 | 0.00 | 17.6 | 4.8 | 1045 |
| 08/26 03:00 | 59 | 38 | 0 | 1 | 6 | 293 | 0.00 | 0.00 | 19.1 | 4.6 | 1107 |
| 08/26 02:00 | 59 | 54 | 0 | 0 | 4 | 301 | 0.00 | 0.00 | 14.8 | 4.7 | 1147 |
| 08/26 01:00 | 58 | 65 | 0 | 0 | 4 | 299 | 0.00 | 0.00 | 15.8 | 4.8 | 1172 |
| 08/26 00:00 | 58 | 67 | 0 | 0 | 1 | 280 | 0.00 | 0.00 | 15.1 | 4.9 | 1198 |
| 08/25 23:00 | 59 | 56 | 0 | 0 | 1 | 359 | 0.00 | 0.00 | 15.2 | 4.7 | 1212 |
| 08/25 22:00 | 60 | 51 | 0 | 0 | 2 | 324 | 0.00 | 0.00 | 16.6 | 4.9 | 1266 |
| 08/25 21:00 | 58 | 81 | 0 | 0 | 4 | 313 | 0.00 | 0.00 | 16.6 | 5.0 | 1754 |
| 08/25 20:00 | 61 | 72 | 0 | 0 | 0 | 282 | 0.00 | 0.00 | 16.4 | 5.1 | 2560 |
| 08/25 19:00 | 65 | 62 | 0 | 0 | 0 | 261 | 0.00 | 0.00 | 17.4 | 5.3 | 2732 |
| 08/25 18:00 | 71 | 50 | 0 | 0 | 8 | 259 | 0.00 | 0.00 | 16.5 | 5.6 | 2642 |
| 08/25 17:00 | 72 | 45 | 0 | 0 | 11 | 260 | 0.00 | 0.00 | 17.9 | 5.7 | 2242 |
| 08/25 16:00 | 73 | 42 | 0 | 0 | 8 | 254 | 0.00 | 0.00 | 17.2 | 5.7 | 1996 |
| 08/25 15:00 | 74 | 38 | 0 | 0 | 10 | 273 | 0.00 | 0.00 | 17.4 | 5.7 | 1866 |
| 08/25 14:00 | 75 | 34 | 0 | 0 | 0 | 150 | 0.00 | 0.00 | 17.4 | 5.4 | 1954 |
| 08/25 13:00 | 74 | 27 | 0 | 0 | 0 | 102 | 0.00 | 0.00 | 16.9 | 5.8 | 1932 |
| 08/25 12:00 | 73 | 28 | 0 | 0 | 1 | 103 | 0.00 | 0.00 | 17.6 | 5.7 | 1858 |
| 08/25 11:00 | 72 | 28 | 0 | 0 | 0 | 103 | 0.00 | 0.00 | 17.4 | 5.5 | 1774 |
| 08/25 10:00 | 69 | 33 | 0 | 0 | 0 | 98 | 0.00 | 0.00 | 19.4 | 5.2 | 1502 |
| 08/25 09:00 | 66 | 35 | 0 | 0 | 0 | 81 | 0.00 | 0.00 | 21.8 | 5.1 | 1652 |
| 08/25 08:00 | 63 | 36 | 0 | 0 | 0 | 58 | 0.00 | 0.00 | 17.7 | 5.4 | 2663 |
| 08/25 07:00 | 63 | 34 | 0 | 0 | 0 | 30 | 0.00 | 0.00 | 17.4 | 5.1 | 2359 |
| 08/25 06:00 | 61 | 37 | 0 | 0 | 0 | 17 | 0.00 | 0.00 | 17.4 | 4.9 | 1302 |
| 08/25 05:00 | 61 | 40 | 0 | 0 | 1 | 37 | 0.00 | 0.00 | 17.3 | 5.1 | 962 |
| 08/25 04:00 | 59 | 42 | 0 | 0 | 0 | 53 | 0.00 | 0.00 | 17.2 | 4.8 | 993 |
| 08/25 03:00 | 61 | 36 | 0 | 0 | 0 | 31 | 0.00 | 0.00 | 17.1 | 4.9 | 1026 |
| 08/25 02:00 | 60 | 39 | 0 | 0 | 0 | 39 | 0.00 | 0.00 | 17.6 | 5.1 | 1079 |
| 08/25 01:00 | 62 | 43 | 0 | 0 | 0 | 52 | 0.00 | 0.00 | 17.9 | 4.7 | 1124 |
| 08/25 00:00 | 61 | 45 | 0 | 0 | 5 | 67 | 0.00 | 0.00 | 17.9 | 4.7 | 1149 |
| 08/24 23:00 | 61 | 47 | 0 | 1 | 4 | 64 | 0.00 | 0.00 | 18.1 | 4.9 | 1163 |
| 08/24 22:00 | 62 | 47 | 0 | 0 | 3 | 70 | 0.00 | 0.00 | 18.1 | 4.9 | 1219 |
| 08/24 21:00 | 62 | 48 | 0 | 0 | 3 | 77 | 0.00 | 0.00 | 17.5 | 4.9 | 1774 |
| 08/24 20:00 | 64 | 44 | 0 | 1 | 8 | 79 | 0.00 | 0.00 | 18.4 | 5.0 | 2570 |

